Time;durP1;ratioP1;P1;durP2;ratioP2;P2;SDS_P1;SDS_P2;PMS_P1;PMS_P2;Temp;Humidity;BMP_temperature;BMP_pressure;BME280_temperature;BME280_humidity;BME280_pressure;Samples;Min_cycle;Max_cycle;Signal;HPM_P1;HPM_P2
2023/06/11 00:00:54;;;;;;;8.75;8.15;;;18.60;99.90;;;19.58;77.13;97750.44;5196158;28;20222;-66
2023/06/11 00:03:27;;;;;;;9.00;8.30;;;18.60;99.90;;;19.51;77.31;97748.53;5190875;28;20221;-66
2023/06/11 00:06:01;;;;;;;8.32;7.80;;;18.60;99.90;;;19.52;77.30;97750.31;5193740;28;20650;-66
2023/06/11 00:08:34;;;;;;;9.20;8.40;;;18.60;99.90;;;19.51;77.51;97751.13;5192893;28;20233;-66
2023/06/11 00:11:07;;;;;;;8.80;8.10;;;18.60;99.90;;;19.49;77.83;97755.44;5191703;28;20272;-66
2023/06/11 00:13:40;;;;;;;8.68;8.00;;;18.50;99.90;;;19.48;77.71;97753.66;5197996;28;20312;-65
2023/06/11 00:16:15;;;;;;;8.60;8.00;;;18.50;99.90;;;19.46;77.73;97755.34;5196127;28;20842;-65
2023/06/11 00:18:49;;;;;;;8.25;7.65;;;18.60;99.90;;;19.49;78.04;97756.31;5189476;28;20229;-65
2023/06/11 00:21:22;;;;;;;9.27;8.50;;;18.60;99.90;;;19.51;78.08;97762.38;5193756;28;20217;-65
2023/06/11 00:23:55;;;;;;;9.25;8.55;;;18.50;99.90;;;19.43;78.16;97756.19;5194337;28;20238;-65
2023/06/11 00:26:29;;;;;;;8.23;7.63;;;18.50;99.90;;;19.40;78.55;97752.63;5198166;28;20596;-66
2023/06/11 00:29:02;;;;;;;9.77;9.07;;;18.40;99.90;;;19.32;78.77;97757.69;5195046;28;20923;-65
2023/06/11 00:31:36;;;;;;;8.63;8.02;;;18.30;99.90;;;19.29;78.88;97758.47;5195197;28;20276;-66
2023/06/11 00:34:10;;;;;;;9.18;8.48;;;18.30;99.90;;;19.18;79.58;97754.78;5197041;28;20265;-65
2023/06/11 00:36:43;;;;;;;9.88;9.18;;;18.20;99.90;;;19.10;79.96;97756.34;5201969;28;20260;-65
2023/06/11 00:39:16;;;;;;;9.52;8.75;;;18.10;99.90;;;19.00;80.80;97756.97;5193187;28;20218;-66
2023/06/11 00:41:50;;;;;;;9.68;8.98;;;18.00;99.90;;;18.95;80.28;97750.81;5200532;28;20221;-65
2023/06/11 00:44:23;;;;;;;9.43;8.73;;;18.00;99.90;;;18.96;80.54;97742.19;5199708;28;20291;-65
2023/06/11 00:46:59;;;;;;;9.43;8.75;;;17.90;99.90;;;18.90;80.53;97750.72;5197650;28;20284;-65
2023/06/11 00:49:33;;;;;;;9.95;9.02;;;17.90;99.90;;;18.93;80.74;97755.09;5199218;28;20221;-65
2023/06/11 00:52:12;;;;;;;9.80;9.00;;;17.90;99.90;;;18.77;81.70;97753.84;5198795;28;20229;-66
2023/06/11 00:54:45;;;;;;;8.77;8.02;;;17.80;99.90;;;18.66;82.18;97751.88;5196777;28;20256;-66
2023/06/11 00:57:22;;;;;;;9.23;8.52;;;17.70;99.90;;;18.63;82.54;97758.69;5193040;28;20222;-65
2023/06/11 00:59:57;;;;;;;9.30;8.55;;;17.70;99.90;;;18.64;82.52;97758.72;5197928;28;20490;-65
2023/06/11 01:02:39;;;;;;;9.57;8.68;;;17.60;99.90;;;18.60;82.31;97761.19;5198614;28;20539;-65
2023/06/11 01:05:17;;;;;;;9.50;8.70;;;17.60;99.90;;;18.54;82.72;97759.34;5198510;28;21774;-65
2023/06/11 01:07:55;;;;;;;9.00;8.30;;;17.50;99.90;;;18.53;82.56;97761.91;5198269;28;20225;-66
2023/06/11 01:10:29;;;;;;;9.00;8.30;;;17.50;99.90;;;18.59;82.72;97767.22;5197932;28;20256;-65
2023/06/11 01:13:03;;;;;;;9.35;8.57;;;17.50;99.90;;;18.51;82.69;97768.75;5200410;28;20628;-66
2023/06/11 01:15:36;;;;;;;9.43;8.73;;;17.50;99.90;;;18.43;83.15;97758.22;5196056;28;20734;-66
2023/06/11 01:18:18;;;;;;;9.18;8.48;;;17.50;99.90;;;18.40;83.38;97758.16;5196436;28;20692;-65
2023/06/11 01:20:58;;;;;;;8.43;7.82;;;17.40;99.90;;;18.38;83.75;97763.28;5200350;28;20222;-66
2023/06/11 01:23:41;;;;;;;8.90;8.20;;;17.40;99.90;;;18.35;83.33;97757.16;5195259;28;20248;-66
2023/06/11 01:26:35;;;;;;;9.05;8.35;;;17.40;99.90;;;18.33;83.63;97762.28;5197603;28;20225;-65
2023/06/11 01:29:10;;;;;;;9.10;8.35;;;17.40;99.90;;;18.31;83.69;97765.66;5197318;28;20763;-65
2023/06/11 01:31:44;;;;;;;9.27;8.48;;;17.30;99.90;;;18.23;84.36;97768.06;5200404;28;20256;-64
2023/06/11 01:34:18;;;;;;;9.40;8.70;;;17.30;99.90;;;18.14;83.81;97768.72;5197870;28;20753;-65
2023/06/11 01:36:51;;;;;;;9.57;8.88;;;17.20;99.90;;;18.10;84.31;97760.81;5200475;28;20230;-65
2023/06/11 01:39:25;;;;;;;8.82;8.23;;;17.20;99.90;;;18.09;84.79;97765.13;5197917;28;20313;-65
2023/06/11 01:41:58;;;;;;;8.95;8.25;;;17.10;99.90;;;18.08;84.44;97762.50;5197084;28;20295;-65
2023/06/11 01:44:33;;;;;;;9.10;8.40;;;17.00;99.90;;;18.08;84.51;97759.91;5195793;28;20230;-65
2023/06/11 01:47:06;;;;;;;8.90;8.23;;;17.10;99.90;;;18.06;84.25;97769.34;5197239;28;20222;-65
2023/06/11 01:49:39;;;;;;;8.75;8.07;;;17.10;99.90;;;18.07;84.33;97761.63;5198316;28;20248;-65
2023/06/11 01:52:13;;;;;;;8.80;8.00;;;17.10;99.90;;;18.00;84.43;97763.19;5198238;28;20279;-65
2023/06/11 01:54:46;;;;;;;8.52;7.82;;;17.10;99.90;;;17.92;84.99;97767.28;5199064;28;20282;-65
2023/06/11 01:57:19;;;;;;;8.63;7.93;;;17.00;99.90;;;17.93;85.09;97769.00;5198892;28;20280;-64
2023/06/11 01:59:53;;;;;;;8.90;8.23;;;16.90;99.90;;;17.91;85.40;97762.94;5199653;28;20225;-65
2023/06/11 02:02:28;;;;;;;8.93;8.25;;;16.90;99.90;;;17.84;85.42;97763.59;5195471;28;20228;-65
2023/06/11 02:05:02;;;;;;;9.23;8.52;;;16.90;99.90;;;17.76;85.83;97765.94;5195776;28;20768;-65
2023/06/11 02:07:35;;;;;;;8.52;7.93;;;16.80;99.90;;;17.69;85.75;97758.84;5199944;28;20614;-65
2023/06/11 02:10:09;;;;;;;9.07;8.20;;;16.70;99.90;;;17.65;86.04;97762.19;5193925;28;20729;-65
2023/06/11 02:12:42;;;;;;;8.80;8.10;;;16.70;99.90;;;17.66;86.70;97763.09;5199821;28;20661;-64
2023/06/11 02:15:17;;;;;;;8.20;7.60;;;16.60;99.90;;;17.62;85.96;97762.09;5195636;28;20233;-65
2023/06/11 02:17:50;;;;;;;9.00;8.30;;;16.60;99.90;;;17.58;86.82;97769.75;5198931;28;20257;-65
2023/06/11 02:20:23;;;;;;;8.90;8.20;;;16.60;99.90;;;17.60;87.13;97770.63;5197278;28;20283;-65
2023/06/11 02:22:56;;;;;;;8.13;7.43;;;16.60;99.90;;;17.62;86.61;97768.97;5195904;28;20279;-64
2023/06/11 02:25:29;;;;;;;9.13;8.43;;;16.60;99.90;;;17.49;86.21;97755.72;5196360;28;20257;-65
2023/06/11 02:28:05;;;;;;;8.77;8.18;;;16.50;99.90;;;17.45;86.75;97764.19;5192576;28;20268;-64
2023/06/11 02:30:40;;;;;;;8.85;8.25;;;16.50;99.90;;;17.53;86.99;97769.59;5197516;28;20709;-65
2023/06/11 02:33:13;;;;;;;8.52;7.93;;;16.50;99.90;;;17.43;86.99;97765.88;5192465;28;20244;-65
2023/06/11 02:35:46;;;;;;;8.43;7.72;;;16.50;99.90;;;17.40;86.77;97764.91;5199238;28;20225;-65
2023/06/11 02:38:19;;;;;;;8.93;8.23;;;16.40;99.90;;;17.35;87.79;97757.03;5198343;28;20700;-65
2023/06/11 02:40:52;;;;;;;8.60;7.90;;;16.40;99.90;;;17.31;87.75;97760.34;5197544;28;20283;-65
2023/06/11 02:43:25;;;;;;;8.90;8.10;;;16.40;99.90;;;17.26;87.59;97759.38;5198527;28;20229;-65
2023/06/11 02:46:00;;;;;;;8.73;8.02;;;16.30;99.90;;;17.29;87.63;97760.31;5195331;28;20299;-65
2023/06/11 02:48:33;;;;;;;8.45;7.85;;;16.30;99.90;;;17.28;87.73;97774.09;5197777;28;20223;-65
2023/06/11 02:51:06;;;;;;;8.23;7.63;;;16.40;99.90;;;17.31;87.52;97768.09;5198542;28;20557;-65
2023/06/11 02:53:40;;;;;;;7.97;7.38;;;16.40;99.90;;;17.36;87.54;97774.28;5188214;28;20234;-65
2023/06/11 02:56:13;;;;;;;7.72;7.22;;;16.40;99.90;;;17.37;87.15;97770.88;5191977;28;20221;-65
2023/06/11 02:58:47;;;;;;;8.60;7.82;;;16.40;99.90;;;17.34;87.67;97773.38;5192146;28;20230;-65
2023/06/11 03:01:21;;;;;;;8.95;8.25;;;16.40;99.90;;;17.31;87.70;97773.25;5198066;28;20611;-64
2023/06/11 03:03:55;;;;;;;8.07;7.47;;;16.40;99.90;;;17.27;88.02;97774.91;5195417;28;20227;-65
2023/06/11 03:06:29;;;;;;;8.00;7.40;;;16.30;99.90;;;17.25;88.38;97776.53;5195488;28;20279;-64
2023/06/11 03:09:02;;;;;;;7.70;7.10;;;16.30;99.90;;;17.30;87.94;97774.09;5195470;28;20221;-65
2023/06/11 03:11:35;;;;;;;8.73;8.02;;;16.40;99.90;;;17.29;88.16;97778.41;5195288;28;20299;-65
2023/06/11 03:14:08;;;;;;;9.07;8.35;;;16.30;99.90;;;17.25;88.52;97786.00;5193635;28;20296;-65
2023/06/11 03:16:43;;;;;;;8.68;8.07;;;16.30;99.90;;;17.33;87.58;97797.44;5195466;28;20226;-65
2023/06/11 03:19:16;;;;;;;9.10;8.40;;;16.30;99.90;;;17.30;87.41;97795.66;5194648;28;20249;-65
2023/06/11 03:21:49;;;;;;;9.25;8.45;;;16.30;99.90;;;17.32;87.69;97795.72;5197088;28;20226;-64
2023/06/11 03:24:22;;;;;;;9.50;8.73;;;16.20;99.90;;;17.25;87.89;97804.09;5188939;28;20262;-65
2023/06/11 03:26:56;;;;;;;9.40;8.70;;;16.20;99.90;;;17.14;88.59;97797.72;5198383;28;20789;-64
2023/06/11 03:29:29;;;;;;;9.82;9.02;;;16.10;99.90;;;17.05;88.87;97804.41;5199475;28;20225;-65
2023/06/11 03:32:04;;;;;;;10.23;9.30;;;16.10;99.90;;;17.02;88.74;97798.22;5197301;28;20221;-64
2023/06/11 03:34:37;;;;;;;9.80;9.00;;;16.10;99.90;;;17.00;89.12;97810.25;5196697;28;20221;-65
2023/06/11 03:37:10;;;;;;;9.73;8.98;;;16.00;99.90;;;17.10;88.22;97809.69;5198530;28;20232;-64
2023/06/11 03:39:44;;;;;;;9.25;8.65;;;16.10;99.90;;;17.13;88.11;97807.19;5197570;28;20249;-65
2023/06/11 03:42:17;;;;;;;10.35;9.55;;;16.10;99.90;;;17.02;88.80;97801.69;5191972;28;20248;-65
2023/06/11 03:44:50;;;;;;;9.60;8.82;;;16.10;99.90;;;16.97;89.07;97811.03;5198898;28;20279;-65
2023/06/11 03:47:25;;;;;;;10.20;9.43;;;16.00;99.90;;;16.96;89.18;97814.41;5197138;28;20225;-65
2023/06/11 03:49:58;;;;;;;9.80;9.05;;;16.10;99.90;;;16.96;89.58;97808.38;5198176;28;20221;-65
2023/06/11 03:52:31;;;;;;;10.35;9.48;;;16.00;99.90;;;16.95;89.01;97812.66;5194112;28;20233;-67
2023/06/11 03:55:06;;;;;;;10.23;9.40;;;16.00;99.90;;;16.99;89.65;97801.59;5193141;28;20660;-65
2023/06/11 03:57:39;;;;;;;10.18;9.48;;;16.10;99.90;;;16.98;89.49;97807.59;5196222;28;20261;-66
2023/06/11 04:00:14;;;;;;;10.05;9.25;;;16.10;99.90;;;16.89;89.31;97817.66;5192503;28;20226;-65
2023/06/11 04:02:49;;;;;;;10.13;9.32;;;16.00;99.90;;;16.92;89.53;97806.53;5197898;28;20248;-65
2023/06/11 04:05:22;;;;;;;10.45;9.55;;;16.00;99.90;;;16.96;89.03;97811.81;5196142;28;20233;-66
2023/06/11 04:07:55;;;;;;;10.07;9.38;;;16.10;99.90;;;17.00;89.14;97815.41;5199553;28;20218;-65
2023/06/11 04:10:29;;;;;;;10.60;9.63;;;16.10;99.90;;;17.09;89.27;97813.97;5195659;28;20291;-66
2023/06/11 04:13:02;;;;;;;9.45;8.75;;;16.20;99.90;;;17.14;89.33;97813.22;5196753;28;20226;-66
2023/06/11 04:15:35;;;;;;;9.80;9.07;;;16.20;99.90;;;17.14;89.17;97813.22;5199799;28;20666;-65
2023/06/11 04:18:11;;;;;;;10.10;9.30;;;16.20;99.90;;;17.17;88.71;97815.91;5204174;28;20705;-65
2023/06/11 04:20:44;;;;;;;10.07;9.27;;;16.30;99.90;;;17.11;89.45;97807.16;5195984;28;20593;-65
2023/06/11 04:23:17;;;;;;;10.20;9.30;;;16.30;99.90;;;17.20;89.13;97818.59;5193220;28;20232;-65
2023/06/11 04:25:51;;;;;;;9.85;9.05;;;16.30;99.90;;;17.28;88.31;97819.69;5192837;28;20639;-66
2023/06/11 04:28:26;;;;;;;10.35;9.60;;;16.40;99.90;;;17.33;87.87;97818.13;5184897;28;20658;-65
2023/06/11 04:30:59;;;;;;;10.48;9.65;;;16.50;99.90;;;17.43;88.28;97816.69;5190321;28;20262;-65
2023/06/11 04:33:36;;;;;;;9.43;8.73;;;16.60;99.90;;;17.51;88.28;97816.09;5184783;28;20308;-65
2023/06/11 04:36:10;;;;;;;10.05;9.25;;;16.70;99.90;;;17.60;87.51;97819.75;5188766;28;20713;-65
2023/06/11 04:38:44;;;;;;;8.68;7.97;;;16.80;99.90;;;17.69;87.77;97817.44;5187995;28;20505;-65
2023/06/11 04:41:18;;;;;;;9.20;8.48;;;16.80;99.90;;;17.87;86.69;97824.88;5191907;28;20227;-68
2023/06/11 04:43:52;;;;;;;9.07;8.35;;;17.00;99.90;;;18.24;85.92;97816.38;5186444;28;20221;-66
2023/06/11 04:46:25;;;;;;;7.93;7.32;;;17.40;99.90;;;18.91;83.41;97822.38;5190343;28;20700;-64
2023/06/11 04:49:04;;;;;;;8.07;7.47;;;18.10;99.90;;;19.61;79.21;97817.03;5186009;28;20236;-64
2023/06/11 04:51:40;;;;;;;8.30;7.60;;;18.70;99.90;;;20.33;75.79;97816.72;5188594;28;20232;-66
2023/06/11 04:54:13;;;;;;;9.05;8.35;;;19.30;99.90;;;21.01;72.25;97829.16;5190690;28;20230;-64
2023/06/11 04:56:47;;;;;;;7.85;7.25;;;19.80;99.90;;;21.63;68.94;97819.63;5190094;28;20313;-65
2023/06/11 04:59:20;;;;;;;8.13;7.45;;;20.20;99.90;;;22.24;65.86;97820.38;5188658;28;20230;-65
2023/06/11 05:01:53;;;;;;;8.07;7.47;;;20.60;99.90;;;22.60;63.67;97824.16;5192609;28;20253;-65
2023/06/11 05:04:28;;;;;;;7.93;7.32;;;20.70;99.90;;;22.97;62.06;97825.38;5188988;28;20234;-65
2023/06/11 05:07:03;;;;;;;7.50;6.90;;;20.80;99.90;;;23.35;60.50;97820.41;5190748;28;20248;-65
2023/06/11 05:09:36;;;;;;;7.85;7.25;;;21.30;99.90;;;23.74;58.88;97813.66;5186064;28;20303;-65
2023/06/11 05:12:10;;;;;;;7.40;6.90;;;21.60;99.90;;;24.01;57.36;97814.66;5186382;28;20218;-65
2023/06/11 05:14:45;;;;;;;7.72;7.13;;;21.70;99.90;;;24.33;56.11;97813.84;5189412;28;20620;-64
2023/06/11 05:17:18;;;;;;;7.45;6.95;;;22.10;99.90;;;24.60;54.85;97815.66;5189987;28;20229;-65
2023/06/11 05:19:52;;;;;;;7.15;6.65;;;22.40;99.90;;;24.91;53.71;97813.91;5190699;28;20316;-65
2023/06/11 05:22:25;;;;;;;7.55;7.05;;;22.70;99.90;;;25.04;52.94;97822.59;5183096;28;20231;-66
2023/06/11 05:24:59;;;;;;;7.85;7.25;;;22.80;99.90;;;25.28;51.95;97821.75;5190953;28;20240;-64
2023/06/11 05:27:32;;;;;;;7.53;6.93;;;23.00;99.90;;;25.38;51.72;97812.97;5189422;28;20222;-67
2023/06/11 05:30:07;;;;;;;7.82;7.32;;;23.20;99.90;;;25.71;51.11;97819.00;5185280;28;20780;-65
2023/06/11 05:32:43;;;;;;;7.55;6.95;;;23.40;99.90;;;25.91;50.13;97811.94;5189157;28;20233;-66
2023/06/11 05:35:18;;;;;;;7.53;7.03;;;23.60;99.30;;;26.15;49.18;97820.56;5188920;28;20261;-66
2023/06/11 05:37:52;;;;;;;7.18;6.57;;;23.80;98.40;;;26.33;49.04;97822.22;5191996;28;20279;-66
2023/06/11 05:40:25;;;;;;;7.82;7.32;;;23.90;98.20;;;26.42;48.24;97825.63;5187033;28;20236;-65
2023/06/11 05:42:58;;;;;;;7.72;7.13;;;24.00;97.70;;;26.27;48.51;97828.38;5189197;28;20300;-65
2023/06/11 05:45:32;;;;;;;7.50;7.00;;;24.20;97.30;;;26.70;47.90;97826.34;5186497;28;20261;-66
2023/06/11 05:48:06;;;;;;;7.75;7.05;;;24.50;96.70;;;26.91;46.83;97822.66;5189311;28;20295;-66
2023/06/11 05:50:40;;;;;;;7.70;7.18;;;24.50;96.20;;;26.94;47.19;97820.00;5190766;28;20639;-66
2023/06/11 05:53:14;;;;;;;6.57;6.18;;;24.80;96.20;;;27.07;46.93;97827.78;5184015;28;20703;-65
2023/06/11 05:55:47;;;;;;;6.30;5.90;;;24.70;96.00;;;27.47;45.58;97824.78;5189234;28;20287;-66
2023/06/11 05:58:20;;;;;;;7.40;6.75;;;25.20;94.90;;;27.54;45.51;97822.06;5181070;28;20713;-66
2023/06/11 06:00:54;;;;;;;7.13;6.63;;;24.90;95.30;;;27.67;45.35;97828.06;5187973;28;22339;-66
2023/06/11 06:03:27;;;;;;;6.68;6.18;;;24.90;95.70;;;27.81;45.50;97825.28;5192767;28;20221;-65
2023/06/11 06:06:03;;;;;;;6.93;6.35;;;25.00;95.60;;;28.08;44.35;97830.19;5195422;28;20236;-64
2023/06/11 06:08:36;;;;;;;6.72;6.22;;;25.40;94.80;;;28.08;44.84;97829.34;5192529;28;20302;-67
2023/06/11 06:11:09;;;;;;;6.57;6.07;;;25.20;95.10;;;28.30;44.40;97833.41;5192662;28;20307;-66
2023/06/11 06:13:43;;;;;;;7.35;6.75;;;25.20;95.00;;;28.22;45.04;97834.41;5193057;28;20705;-65
2023/06/11 06:16:16;;;;;;;6.32;5.93;;;25.30;95.50;;;28.60;43.20;97833.88;5195014;28;20229;-66
2023/06/11 06:18:49;;;;;;;6.80;6.30;;;25.60;94.60;;;28.73;42.49;97839.78;5195856;28;20225;-67
2023/06/11 06:21:24;;;;;;;6.53;5.93;;;26.00;93.70;;;29.01;41.74;97840.22;5192837;28;20237;-65
2023/06/11 06:23:57;;;;;;;6.25;5.85;;;26.30;92.70;;;29.12;41.77;97840.94;5190575;28;20220;-67
2023/06/11 06:26:30;;;;;;;6.25;5.75;;;26.30;92.60;;;29.34;40.34;97840.56;5196132;28;20731;-65
2023/06/11 06:29:03;;;;;;;5.97;5.57;;;26.50;91.60;;;29.02;41.05;97849.88;5196569;28;20216;-65
2023/06/11 06:31:38;;;;;;;6.10;5.70;;;26.60;91.30;;;29.22;40.54;97846.03;5197053;28;20225;-66
2023/06/11 06:34:12;;;;;;;6.90;6.40;;;26.60;91.20;;;28.62;40.79;97845.25;5191420;28;20221;-66
2023/06/11 06:36:46;;;;;;;6.47;6.03;;;26.40;90.80;;;28.61;40.18;97843.50;5198545;28;20244;-65
2023/06/11 06:39:19;;;;;;;6.63;6.22;;;26.20;90.70;;;28.84;40.35;97850.16;5193756;28;20220;-66
2023/06/11 06:41:53;;;;;;;6.35;5.90;;;26.40;90.60;;;29.52;39.85;97853.38;5189999;28;20244;-65
2023/06/11 06:44:26;;;;;;;6.45;5.95;;;27.00;90.60;;;29.62;39.28;97843.56;5191620;28;20296;-66
2023/06/11 06:46:59;;;;;;;6.47;5.97;;;27.20;89.80;;;29.99;38.55;97841.06;5189598;28;20293;-63
2023/06/11 06:49:32;;;;;;;6.18;5.68;;;27.60;88.80;;;29.82;38.78;97845.84;5192986;28;20241;-66
2023/06/11 06:52:09;;;;;;;6.60;6.20;;;27.30;88.50;;;29.84;38.27;97844.00;5192100;28;20762;-64
2023/06/11 06:54:42;;;;;;;6.57;6.00;;;27.70;86.70;;;29.99;38.26;97845.44;5190060;28;20235;-66
2023/06/11 06:57:15;;;;;;;6.35;5.93;;;27.50;87.60;;;30.10;36.98;97851.38;5197489;28;20221;-66
2023/06/11 06:59:48;;;;;;;6.05;5.65;;;28.10;85.10;;;30.36;37.27;97850.88;5194859;28;20855;-66
2023/06/11 07:02:21;;;;;;;6.05;5.60;;;28.30;84.50;;;29.90;37.30;97843.88;5195038;28;20959;-66
2023/06/11 07:04:54;;;;;;;7.13;6.53;;;28.00;83.90;;;30.00;37.31;97847.22;5194468;28;20226;-66
2023/06/11 07:07:29;;;;;;;6.30;5.80;;;27.90;84.30;;;29.97;37.35;97842.00;5194724;28;20225;-66
2023/06/11 07:10:02;;;;;;;6.40;6.00;;;28.20;83.00;;;29.97;37.59;97847.28;5192583;28;20621;-68
2023/06/11 07:12:35;;;;;;;6.45;5.95;;;28.10;83.80;;;30.42;35.86;97842.81;5191786;28;20260;-65
2023/06/11 07:15:10;;;;;;;5.78;5.38;;;28.40;82.30;;;30.13;36.67;97853.94;5194116;28;20222;-64
2023/06/11 07:17:43;;;;;;;6.00;5.50;;;28.00;82.50;;;29.45;36.94;97854.41;5196567;28;20220;-65
2023/06/11 07:20:16;;;;;;;6.13;5.53;;;27.50;82.70;;;29.49;36.28;97850.81;5187362;28;20700;-66
2023/06/11 07:22:51;;;;;;;6.53;5.90;;;27.80;80.40;;;29.48;35.22;97864.88;5196474;28;20231;-66
2023/06/11 07:25:28;;;;;;;5.68;5.28;;;27.80;78.50;;;29.93;34.62;97851.72;5186522;28;20217;-66
2023/06/11 07:28:02;;;;;;;5.95;5.55;;;28.40;77.80;;;28.91;35.19;97857.06;5198792;28;20221;-67
2023/06/11 07:30:36;;;;;;;5.97;5.47;;;27.80;76.90;;;28.97;35.72;97841.19;5194794;28;20238;-66
2023/06/11 07:33:09;;;;;;;6.18;5.65;;;27.80;76.80;;;29.52;34.98;97852.53;5194191;28;20599;-67
2023/06/11 07:35:42;;;;;;;5.90;5.40;;;28.20;77.20;;;29.71;34.05;97855.72;5194305;28;20319;-66
2023/06/11 07:38:17;;;;;;;5.93;5.53;;;28.20;75.60;;;29.44;34.25;97867.59;5194680;28;20220;-66
2023/06/11 07:40:50;;;;;;;6.40;5.93;;;28.30;74.50;;;29.03;35.12;97856.91;5192474;28;20217;-66
2023/06/11 07:43:24;;;;;;;5.57;5.18;;;27.80;75.50;;;29.17;34.64;97867.19;5195291;28;20767;-67
2023/06/11 07:45:57;;;;;;;5.88;5.40;;;27.70;76.10;;;28.89;34.53;97841.28;5194463;28;20217;-66
2023/06/11 07:48:30;;;;;;;6.43;5.70;;;27.50;75.60;;;29.27;33.61;97854.72;5189246;28;20319;-65
2023/06/11 07:51:03;;;;;;;5.95;5.40;;;28.00;73.50;;;29.01;34.46;97848.13;5192049;28;20287;-66
2023/06/11 07:53:38;;;;;;;5.45;4.95;;;27.70;74.60;;;29.66;34.04;97845.25;5188383;28;20295;-66
2023/06/11 07:56:11;;;;;;;5.78;5.30;;;28.00;75.10;;;30.12;32.77;97843.44;5191135;28;20683;-66
2023/06/11 07:58:45;;;;;;;5.82;5.50;;;28.50;73.50;;;30.03;32.17;97841.88;5188901;28;20229;-65
2023/06/11 08:01:18;;;;;;;5.38;5.00;;;28.60;71.60;;;29.90;33.49;97846.50;5182765;28;20242;-66
2023/06/11 08:03:51;;;;;;;6.15;5.65;;;28.20;73.80;;;29.50;33.75;97839.38;5185265;28;20221;-66
2023/06/11 08:06:24;;;;;;;5.97;5.32;;;28.10;73.80;;;29.80;32.50;97845.00;5189363;28;20283;-66
2023/06/11 08:08:59;;;;;;;5.55;5.10;;;28.50;72.50;;;29.90;33.24;97843.88;5197945;28;20731;-66
2023/06/11 08:11:32;;;;;;;6.00;5.60;;;28.20;73.50;;;30.29;32.29;97842.19;5186313;28;21114;-66
2023/06/11 08:14:05;;;;;;;5.72;5.18;;;28.40;72.50;;;31.01;30.85;97844.94;5183238;28;20261;-66
2023/06/11 08:16:38;;;;;;;6.05;5.28;;;29.00;71.00;;;31.76;30.47;97845.59;5185747;28;20287;-66
2023/06/11 08:19:11;;;;;;;6.13;5.53;;;29.50;71.00;;;31.02;30.27;97840.50;5187955;28;20221;-66
2023/06/11 08:21:46;;;;;;;6.20;5.70;;;29.50;68.50;;;30.03;31.11;97848.00;5191243;28;20670;-66
2023/06/11 08:24:21;;;;;;;5.88;5.43;;;28.90;69.70;;;28.96;32.59;97866.63;5186984;28;20611;-67
2023/06/11 08:26:55;;;;;;;6.93;6.25;;;28.00;69.70;;;28.43;33.00;97841.16;5190421;28;20288;-66
2023/06/11 08:29:28;;;;;;;6.63;6.03;;;27.70;70.10;;;28.38;33.31;97837.69;5185967;28;20226;-66
2023/06/11 08:32:01;;;;;;;6.55;5.95;;;27.50;70.30;;;28.30;34.05;97828.16;5185485;28;20221;-65
2023/06/11 08:34:34;;;;;;;6.45;5.82;;;27.50;70.70;;;28.59;32.98;97834.78;5190223;28;20231;-66
2023/06/11 08:37:08;;;;;;;6.05;5.55;;;27.80;70.00;;;28.79;33.00;97831.84;5186671;28;20794;-66
2023/06/11 08:39:42;;;;;;;6.10;5.70;;;28.00;69.90;;;29.16;32.90;97837.38;5186809;28;20233;-66
2023/06/11 08:42:15;;;;;;;5.95;5.45;;;28.50;69.10;;;29.51;32.77;97825.31;5190139;28;20406;-66
2023/06/11 08:44:49;;;;;;;6.50;5.80;;;28.70;69.00;;;29.59;32.32;97826.03;5191195;28;20295;-66
2023/06/11 08:47:24;;;;;;;6.70;6.20;;;28.70;68.70;;;28.65;33.51;97832.03;5183970;28;20228;-66
2023/06/11 08:50:00;;;;;;;6.15;5.65;;;28.00;68.80;;;28.54;32.10;97820.81;5185186;28;20221;-66
2023/06/11 08:52:35;;;;;;;6.85;6.28;;;27.90;66.30;;;28.62;31.53;97831.22;5184746;28;20252;-66
2023/06/11 08:55:10;;;;;;;6.95;6.45;;;28.10;66.40;;;28.65;29.83;97839.06;5187567;28;20253;-66
2023/06/11 08:57:44;;;;;;;7.35;6.70;;;28.00;63.60;;;28.22;31.62;97837.91;5194395;28;20283;-66
2023/06/11 09:00:19;;;;;;;6.88;6.38;;;27.80;65.20;;;28.12;33.21;97833.66;5191248;28;20632;-66
2023/06/11 09:02:52;;;;;;;6.30;5.78;;;27.50;67.90;;;28.15;32.34;97836.22;5196251;28;20216;-66
2023/06/11 09:05:26;;;;;;;7.00;6.45;;;27.60;66.30;;;27.91;32.63;97834.81;5196496;28;20271;-66
2023/06/11 09:07:59;;;;;;;7.30;6.70;;;27.30;67.80;;;27.88;33.57;97844.50;5192084;28;20248;-66
2023/06/11 09:10:33;;;;;;;6.00;5.55;;;27.30;68.40;;;27.90;33.46;97834.81;5196066;28;20246;-66
2023/06/11 09:13:08;;;;;;;6.80;6.20;;;27.50;67.60;;;27.38;32.78;97818.72;5191987;28;20244;-66
2023/06/11 09:15:48;;;;;;;7.55;5.82;;;27.40;65.80;;;28.00;33.54;97828.56;5193384;28;20228;-66
2023/06/11 09:18:22;;;;;;;6.35;5.85;;;27.70;67.50;;;28.52;33.73;97823.47;5196432;28;20217;-66
2023/06/11 09:21:00;;;;;;;6.80;6.30;;;28.20;68.10;;;28.53;33.04;97834.88;5195952;28;20216;-66
2023/06/11 09:23:35;;;;;;;6.25;5.72;;;28.20;67.70;;;28.43;31.76;97841.16;5193404;28;20236;-66
2023/06/11 09:26:09;;;;;;;6.65;6.07;;;28.00;65.70;;;28.29;33.07;97836.06;5198026;28;20252;-66
2023/06/11 09:28:42;;;;;;;6.32;5.75;;;27.90;66.70;;;27.15;34.15;97820.69;5198485;28;20221;-66
2023/06/11 09:31:20;;;;;;;7.43;6.72;;;27.10;67.50;;;27.47;32.96;97830.03;5198814;28;20248;-66
2023/06/11 09:33:54;;;;;;;6.85;6.25;;;27.10;67.20;;;27.67;33.92;97835.97;5195086;28;20968;-65
2023/06/11 09:36:27;;;;;;;6.60;5.95;;;27.20;68.40;;;27.81;34.19;97823.56;5188143;28;20237;-64
2023/06/11 09:39:00;;;;;;;6.88;6.28;;;27.30;69.10;;;28.10;33.85;97830.19;5191042;28;20241;-66
2023/06/11 09:41:35;;;;;;;6.47;5.97;;;27.70;68.70;;;27.80;34.13;97821.78;5189534;28;20621;-65
2023/06/11 09:44:09;;;;;;;6.93;6.40;;;27.50;68.60;;;28.08;33.37;97831.97;5192370;28;20668;-66
2023/06/11 09:46:43;;;;;;;7.35;6.70;;;27.70;67.90;;;27.97;33.70;97826.84;5191717;28;20290;-66
2023/06/11 09:49:17;;;;;;;6.60;6.00;;;27.50;69.20;;;27.92;33.66;97822.53;5196042;28;20259;-66
2023/06/11 09:51:52;;;;;;;6.70;6.10;;;27.70;67.80;;;28.01;34.15;97828.53;5199499;28;20216;-65
2023/06/11 09:54:26;;;;;;;6.53;6.03;;;27.50;68.80;;;27.49;34.71;97828.25;5195756;28;20718;-65
2023/06/11 09:57:01;;;;;;;7.35;6.85;;;27.20;69.30;;;27.77;34.10;97832.31;5195068;28;20648;-65
2023/06/11 09:59:36;;;;;;;7.30;6.70;;;27.40;68.00;;;27.54;34.26;97829.09;5198676;28;20243;-66
2023/06/11 10:02:10;;;;;;;6.88;6.38;;;27.10;68.70;;;27.90;33.55;97821.69;5195468;28;20238;-65
2023/06/11 10:04:43;;;;;;;7.07;6.50;;;27.30;68.00;;;28.25;32.83;97840.50;5193997;28;20222;-66
2023/06/11 10:07:17;;;;;;;6.30;5.80;;;27.80;67.60;;;28.13;32.65;97821.38;5198813;28;20511;-65
2023/06/11 10:09:54;;;;;;;7.00;6.30;;;27.70;66.40;;;27.85;31.99;97825.25;5197066;28;20244;-65
2023/06/11 10:12:33;;;;;;;6.38;5.97;;;27.40;65.10;;;28.20;32.52;97828.31;5191376;28;20241;-65
2023/06/11 10:15:12;;;;;;;6.43;5.90;;;27.70;66.20;;;28.34;31.54;97823.72;5198095;28;20225;-67
2023/06/11 10:17:48;;;;;;;7.05;6.35;;;27.90;64.80;;;28.43;31.53;97822.75;5197185;28;20225;-67
2023/06/11 10:20:27;;;;;;;6.55;6.05;;;27.90;65.50;;;28.47;31.67;97824.41;5197892;28;20231;-65
2023/06/11 10:23:05;;;;;;;6.25;5.85;;;27.90;65.70;;;28.45;32.18;97834.13;5193811;28;20221;-65
2023/06/11 10:25:41;;;;;;;6.72;6.13;;;27.90;65.60;;;28.70;32.06;97822.31;5195904;28;20276;-65
2023/06/11 10:28:16;;;;;;;6.75;6.15;;;28.10;65.30;;;28.43;32.16;97839.38;5196382;28;20220;-64
2023/06/11 10:30:55;;;;;;;6.55;6.00;;;27.90;65.90;;;28.58;31.66;97821.63;5191967;28;20221;-67
2023/06/11 10:33:37;;;;;;;6.90;6.40;;;27.90;66.10;;;28.70;31.83;97817.06;5192930;28;20258;-65
2023/06/11 10:36:21;;;;;;;6.68;5.80;;;28.10;66.10;;;28.63;31.98;97825.94;5195346;28;20244;-65
2023/06/11 10:39:06;;;;;;;6.93;6.18;;;28.10;65.50;;;28.14;32.10;97821.38;5196453;28;20221;-65
2023/06/11 10:41:40;;;;;;;6.78;6.28;;;27.60;65.70;;;28.28;32.69;97813.28;5188822;28;20244;-65
2023/06/11 10:44:15;;;;;;;6.90;6.40;;;27.80;65.80;;;27.83;32.53;97826.16;5188358;28;20239;-65
2023/06/11 10:46:52;;;;;;;6.57;6.00;;;27.40;65.20;;;27.51;32.48;97802.88;5190509;28;20346;-65